Time;durP1;ratioP1;P1;durP2;ratioP2;P2;SDS_P1;SDS_P2;PMS_P1;PMS_P2;Temp;Humidity;BMP_temperature;BMP_pressure;BME280_temperature;BME280_humidity;BME280_pressure;Samples;Min_cycle;Max_cycle;Signal;HPM_P1;HPM_P2
2021/03/07 00:00:16;;;;;;;10.60;5.40;;;;;;;-3.45;69.57;101349.44;1748637;80;21241;-69
2021/03/07 00:02:44;;;;;;;10.10;5.33;;;;;;;-3.49;69.70;101343.66;1757513;80;21197;-69
2021/03/07 00:05:17;;;;;;;11.57;5.30;;;;;;;-3.50;69.86;101337.28;1752267;80;21190;-70
2021/03/07 00:07:49;;;;;;;9.75;5.00;;;;;;;-3.52;69.90;101335.29;1749818;80;21209;-69
2021/03/07 00:10:18;;;;;;;9.85;5.17;;;;;;;-3.54;70.09;101334.14;1750418;80;21521;-69
2021/03/07 00:12:46;;;;;;;8.80;4.72;;;;;;;-3.54;70.23;101333.66;1759643;80;21157;-69
2021/03/07 00:15:15;;;;;;;7.72;4.70;;;;;;;-3.54;70.53;101323.21;1731801;81;21157;-70
2021/03/07 00:17:43;;;;;;;8.80;5.03;;;;;;;-3.54;70.61;101327.12;1735811;81;21389;-70
2021/03/07 00:20:14;;;;;;;8.78;5.40;;;;;;;-3.54;70.79;101317.17;1736990;81;21177;-69
2021/03/07 00:22:42;;;;;;;9.20;5.08;;;;;;;-3.53;71.09;101316.20;1734541;81;22282;-68
2021/03/07 00:25:15;;;;;;;9.18;5.17;;;;;;;-3.52;71.09;101312.64;1755244;80;21138;-68
2021/03/07 00:27:45;;;;;;;9.78;4.95;;;;;;;-3.50;71.09;101319.00;1752585;80;21193;-71
2021/03/07 00:30:19;;;;;;;9.43;4.72;;;;;;;-3.49;71.23;101308.88;1756629;80;21225;-69
2021/03/07 00:32:49;;;;;;;9.00;5.28;;;;;;;-3.52;71.44;101307.41;1759545;80;21269;-69
2021/03/07 00:35:17;;;;;;;7.70;4.60;;;;;;;-3.51;71.54;101301.70;1753840;80;21329;-69
2021/03/07 00:37:45;;;;;;;8.28;4.90;;;;;;;-3.52;71.64;101290.89;1751720;81;21213;-67
2021/03/07 00:40:13;;;;;;;10.00;5.08;;;;;;;-3.54;71.68;101293.18;1761201;80;21676;-67
2021/03/07 00:42:44;;;;;;;7.47;4.65;;;;;;;-3.54;71.77;101297.09;1753312;80;21731;-69
2021/03/07 00:45:15;;;;;;;9.00;4.50;;;;;;;-3.55;71.75;101290.73;1754586;80;21210;-68
2021/03/07 00:47:43;;;;;;;8.25;5.25;;;;;;;-3.57;71.92;101288.25;1753562;80;22302;-68
2021/03/07 00:50:16;;;;;;;9.30;4.90;;;;;;;-3.58;71.99;101280.09;1759208;80;21716;-67
2021/03/07 00:52:44;;;;;;;9.45;5.47;;;;;;;-3.58;72.21;101260.50;1760833;81;21206;-68
2021/03/07 00:55:12;;;;;;;10.23;5.25;;;;;;;-3.58;72.23;101272.25;1728722;81;21227;-68
2021/03/07 00:57:40;;;;;;;12.00;4.55;;;;;;;-3.60;72.31;101262.43;1732066;81;21902;-67
2021/03/07 01:00:25;;;;;;;8.30;4.22;;;;;;;-3.58;72.37;101259.69;1760044;80;21202;-68
2021/03/07 01:02:54;;;;;;;8.13;4.87;;;;;;;-3.61;72.54;101246.44;1678276;84;21099;-69
2021/03/07 01:05:30;;;;;;;8.40;4.37;;;;;;;-3.61;72.59;101240.40;1708825;82;21580;-68
2021/03/07 01:07:57;;;;;;;9.98;5.03;;;;;;;-3.60;72.56;101234.20;1723077;81;21151;-69
2021/03/07 01:10:34;;;;;;;8.10;4.85;;;;;;;-3.59;72.64;101236.64;1722554;81;22353;-69
2021/03/07 01:13:02;;;;;;;8.53;4.55;;;;;;;-3.59;72.68;101232.73;1721970;81;21311;-70
2021/03/07 01:15:30;;;;;;;8.20;4.85;;;;;;;-3.60;72.71;101229.79;1716674;81;21104;-68
2021/03/07 01:17:59;;;;;;;9.45;4.97;;;;;;;-3.60;72.74;101224.57;1718656;81;21118;-69
2021/03/07 01:20:28;;;;;;;9.28;4.80;;;;;;;-3.60;72.86;101220.66;1716952;81;21136;-68
2021/03/07 01:22:56;;;;;;;8.53;4.85;;;;;;;-3.59;72.89;101214.94;1718382;81;21182;-69
2021/03/07 01:25:31;;;;;;;7.12;4.22;;;;;;;-3.59;72.93;101210.53;1714337;82;21175;-69
2021/03/07 01:28:02;;;;;;;9.60;4.80;;;;;;;-3.59;72.93;101197.48;1717825;82;21725;-70
2021/03/07 01:30:31;;;;;;;9.43;4.62;;;;;;;-3.58;72.98;101206.98;1714624;81;21083;-68
2021/03/07 01:32:59;;;;;;;9.95;5.30;;;;;;;-3.59;73.00;101188.34;1720450;82;21179;-69
2021/03/07 01:35:27;;;;;;;9.73;4.25;;;;;;;-3.57;72.97;101186.91;1718911;81;21195;-70
2021/03/07 01:37:55;;;;;;;7.20;4.35;;;;;;;-3.55;72.91;101188.89;1728480;81;21259;-70
2021/03/07 01:40:28;;;;;;;8.55;4.78;;;;;;;-3.53;72.84;101190.85;1726776;82;21199;-71
2021/03/07 01:42:57;;;;;;;7.72;4.75;;;;;;;-3.49;72.79;101182.23;1695678;82;21618;-71
2021/03/07 01:45:28;;;;;;;9.30;4.60;;;;;;;-3.50;72.74;101177.50;1694520;81;21752;-70
2021/03/07 01:47:59;;;;;;;9.13;5.17;;;;;;;-3.49;72.73;101177.01;1723668;81;21682;-71
2021/03/07 01:50:30;;;;;;;7.67;4.83;;;;;;;-3.50;72.71;101169.66;1711927;82;21367;-71
2021/03/07 01:52:58;;;;;;;8.40;5.03;;;;;;;-3.50;72.72;101174.07;1707097;83;21616;-71
2021/03/07 01:55:28;;;;;;;8.15;4.72;;;;;;;-3.51;72.71;101168.03;1718335;81;22761;-71
2021/03/07 01:58:13;;;;;;;;;;;;;;;-3.50;72.71;101158.41;1719234;81;21226;-71
2021/03/07 02:00:41;;;;;;;8.85;4.67;;;;;;;-3.48;72.65;101163.00;1697236;82;20585;-71
2021/03/07 02:03:09;;;;;;;7.15;4.50;;;;;;;-3.48;72.61;101163.00;1718960;83;21183;-70
2021/03/07 02:05:37;;;;;;;7.78;4.55;;;;;;;-3.47;72.56;101160.23;1712369;81;21238;-71
2021/03/07 02:08:06;;;;;;;8.88;5.25;;;;;;;-3.45;72.50;101163.52;1729829;81;21243;-71
2021/03/07 02:10:40;;;;;;;9.70;4.67;;;;;;;-3.44;72.44;101159.11;1712466;82;21499;-68
2021/03/07 02:13:12;;;;;;;7.12;4.58;;;;;;;-3.43;72.33;101156.83;1730066;81;21155;-69
2021/03/07 02:15:43;;;;;;;8.65;4.95;;;;;;;-3.43;72.23;101152.42;1723781;81;22290;-69
2021/03/07 02:18:12;;;;;;;8.68;4.95;;;;;;;-3.41;72.17;101146.56;1716847;81;21091;-70
2021/03/07 02:20:44;;;;;;;7.25;4.78;;;;;;;-3.40;72.10;101144.77;1719218;82;21124;-68
2021/03/07 02:23:16;;;;;;;9.20;5.28;;;;;;;-3.40;72.03;101146.08;1720717;81;21143;-70
2021/03/07 02:25:44;;;;;;;8.00;4.40;;;;;;;-3.41;71.96;101132.20;1716432;81;21571;-69
2021/03/07 02:28:12;;;;;;;8.10;5.15;;;;;;;-3.40;71.92;101130.41;1719094;81;21401;-68
2021/03/07 02:30:41;;;;;;;8.08;4.45;;;;;;;-3.40;71.90;101138.24;1708633;83;21082;-68
2021/03/07 02:33:29;;;;;;;8.23;4.70;;;;;;;-3.40;71.87;101126.00;1705626;82;21214;-69
2021/03/07 02:36:07;;;;;;;10.45;5.00;;;;;;;-3.41;71.84;101124.86;1704644;82;21247;-69
2021/03/07 02:38:37;;;;;;;7.72;4.67;;;;;;;-3.44;71.81;101119.94;1726196;81;21215;-69
2021/03/07 02:41:07;;;;;;;6.62;3.55;;;;;;;-3.45;71.80;101121.73;1675919;84;22195;-69
2021/03/07 02:43:38;;;;;;;7.97;4.50;;;;;;;-3.44;71.75;101114.72;1744862;81;21453;-68
2021/03/07 02:46:06;;;;;;;8.08;4.70;;;;;;;-3.44;71.64;101118.63;1718234;82;21208;-69
2021/03/07 02:48:34;;;;;;;8.35;4.97;;;;;;;-3.44;71.54;101112.92;1729858;81;21147;-69
2021/03/07 02:51:03;;;;;;;6.80;4.15;;;;;;;-3.43;71.44;101102.80;1709414;81;21147;-69
2021/03/07 02:53:32;;;;;;;6.97;4.62;;;;;;;-3.43;71.38;101105.41;1720485;81;21344;-69
2021/03/07 02:56:06;;;;;;;7.60;4.83;;;;;;;-3.43;71.29;101096.76;1718528;81;21209;-68
2021/03/07 02:58:34;;;;;;;7.00;4.10;;;;;;;-3.42;71.25;101086.64;1733410;81;21101;-69
2021/03/07 03:01:04;;;;;;;8.18;4.58;;;;;;;-3.41;71.17;101093.52;1716855;81;21212;-69
2021/03/07 03:03:35;;;;;;;8.23;4.90;;;;;;;-3.43;71.08;101080.59;1716290;81;21500;-68
2021/03/07 03:06:03;;;;;;;8.08;4.40;;;;;;;-3.42;70.97;101076.19;1720642;81;22305;-68
2021/03/07 03:08:32;;;;;;;7.35;4.60;;;;;;;-3.42;70.92;101074.42;1717570;81;21623;-68
2021/03/07 03:11:01;;;;;;;9.20;4.72;;;;;;;-3.41;70.86;101077.85;1717502;81;21194;-69
2021/03/07 03:13:34;;;;;;;8.70;5.00;;;;;;;-3.44;70.85;101059.88;1722958;81;21206;-69
2021/03/07 03:16:05;;;;;;;8.30;4.58;;;;;;;-3.42;70.78;101059.21;1725064;81;21148;-67
2021/03/07 03:18:35;;;;;;;7.03;4.10;;;;;;;-3.40;70.68;101057.28;1721388;81;21343;-69
2021/03/07 03:21:09;;;;;;;7.40;4.55;;;;;;;-3.42;70.65;101053.98;1673515;84;21440;-68
2021/03/07 03:23:37;;;;;;;7.95;4.80;;;;;;;-3.43;70.63;101061.02;1726925;81;21300;-68
2021/03/07 03:26:08;;;;;;;7.37;4.42;;;;;;;-3.44;70.59;101042.41;1722114;83;21175;-68
2021/03/07 03:28:37;;;;;;;8.55;4.85;;;;;;;-3.42;70.55;101042.23;1717593;81;21524;-69
2021/03/07 03:31:05;;;;;;;9.80;4.75;;;;;;;-3.44;70.51;101027.23;1689431;82;21646;-69
2021/03/07 03:33:32;;;;;;;6.92;4.30;;;;;;;-3.43;70.47;101020.53;1737578;81;21160;-69
2021/03/07 03:36:01;;;;;;;9.10;4.75;;;;;;;-3.44;70.45;101013.67;1721305;81;21144;-69
2021/03/07 03:38:43;;;;;;;7.22;4.62;;;;;;;-3.44;70.37;101011.55;1727316;81;21673;-68
2021/03/07 03:41:11;;;;;;;8.70;4.62;;;;;;;-3.45;70.33;101005.52;1712254;81;21175;-69
2021/03/07 03:43:40;;;;;;;7.22;4.50;;;;;;;-3.46;70.30;100998.64;1713032;82;21202;-69
2021/03/07 03:49:05;;;;;;;8.10;4.47;;;;;;;-3.39;70.14;100976.64;1764811;79;22650;-69
2021/03/07 03:51:39;;;;;;;9.58;5.10;;;;;;;-3.45;70.05;100967.66;1727109;81;21069;-69
2021/03/07 03:54:07;;;;;;;8.43;4.87;;;;;;;-3.43;69.96;100959.65;1768400;80;21428;-69
2021/03/07 03:56:36;;;;;;;6.30;4.15;;;;;;;-3.42;69.92;100965.20;1740648;81;21095;-68
2021/03/07 03:59:03;;;;;;;8.28;4.50;;;;;;;-3.42;69.89;100961.28;1733868;82;21595;-69
2021/03/07 04:01:32;;;;;;;9.13;4.70;;;;;;;-3.42;69.79;100947.76;1736004;82;21187;-69
2021/03/07 04:04:02;;;;;;;8.55;5.08;;;;;;;-3.41;69.73;100947.27;1732369;81;21128;-69
2021/03/07 04:06:30;;;;;;;7.67;4.22;;;;;;;-3.39;69.73;100949.22;1782123;79;21373;-70
2021/03/07 04:08:57;;;;;;;8.10;4.22;;;;;;;-3.40;69.71;100946.28;1779260;79;21166;-69
2021/03/07 04:11:25;;;;;;;8.33;4.50;;;;;;;-3.36;69.70;100944.98;1757758;80;21195;-68
2021/03/07 04:13:55;;;;;;;6.67;4.08;;;;;;;-3.37;69.66;100936.34;1740353;80;21167;-69
2021/03/07 04:16:23;;;;;;;8.38;4.97;;;;;;;-3.35;69.66;100934.89;1781231;79;21633;-69
2021/03/07 04:18:51;;;;;;;9.78;4.92;;;;;;;-3.38;69.60;100924.27;1778746;79;21554;-69
2021/03/07 04:21:18;;;;;;;9.10;5.47;;;;;;;-3.39;69.63;100917.88;1768202;79;21147;-69
2021/03/07 04:23:46;;;;;;;10.93;5.20;;;;;;;-3.40;69.60;100913.14;1762476;79;21170;-69
2021/03/07 04:26:14;;;;;;;9.35;4.92;;;;;;;-3.39;69.63;100908.73;1746321;80;21147;-69
2021/03/07 04:28:42;;;;;;;9.30;4.92;;;;;;;-3.35;69.58;100908.78;1749621;80;21211;-69
2021/03/07 04:31:10;;;;;;;9.78;4.95;;;;;;;-3.34;69.58;100903.38;1782532;79;21564;-69
2021/03/07 04:33:38;;;;;;;9.25;4.90;;;;;;;-3.36;69.58;100894.06;1746084;79;21156;-68
2021/03/07 04:36:08;;;;;;;7.83;5.12;;;;;;;-3.35;69.55;100890.00;1728580;79;21172;-70
2021/03/07 04:38:36;;;;;;;8.98;4.70;;;;;;;-3.32;69.55;100890.18;1770379;79;21178;-70
2021/03/07 04:41:04;;;;;;;8.15;4.62;;;;;;;-3.35;69.53;100876.94;1777882;79;21115;-68
2021/03/07 04:43:50;;;;;;;8.00;4.87;;;;;;;-3.33;69.54;100871.55;1782237;79;21176;-68
2021/03/07 04:46:21;;;;;;;12.18;5.40;;;;;;;-3.32;69.51;100877.93;1766319;79;21146;-70
2021/03/07 04:48:49;;;;;;;10.00;6.58;;;;;;;-3.31;69.50;100865.19;1774126;79;21203;-70
2021/03/07 04:51:17;;;;;;;8.70;4.90;;;;;;;-3.28;69.48;100870.59;1777701;79;21139;-68
2021/03/07 04:53:46;;;;;;;9.43;5.37;;;;;;;-3.26;69.47;100866.50;1773145;79;21084;-69
2021/03/07 04:56:14;;;;;;;9.70;5.50;;;;;;;-3.23;69.42;100864.88;1779321;79;21551;-69
2021/03/07 04:58:42;;;;;;;9.05;5.20;;;;;;;-3.22;69.37;100865.23;1779268;79;21270;-68
2021/03/07 05:01:09;;;;;;;10.10;5.45;;;;;;;-3.20;69.36;100864.07;1778489;79;21195;-68
2021/03/07 05:03:38;;;;;;;11.45;6.25;;;;;;;-3.17;69.33;100864.25;1758937;79;21167;-69
2021/03/07 05:06:06;;;;;;;10.18;5.22;;;;;;;-3.14;69.30;100863.44;1773995;79;21127;-70
2021/03/07 05:08:35;;;;;;;9.60;5.37;;;;;;;-3.09;69.25;100861.67;1784312;79;21310;-69
2021/03/07 05:11:03;;;;;;;9.75;6.12;;;;;;;-3.04;69.20;100851.53;1776396;79;21568;-70
2021/03/07 05:13:31;;;;;;;12.23;6.28;;;;;;;-2.99;69.17;100853.69;1764636;79;21670;-69
2021/03/07 05:15:59;;;;;;;11.28;6.30;;;;;;;-2.95;69.09;100855.80;1782643;79;21069;-69
2021/03/07 05:18:28;;;;;;;10.23;5.72;;;;;;;-2.90;68.96;100849.59;1772592;79;21580;-69
2021/03/07 05:20:56;;;;;;;11.20;6.37;;;;;;;-2.86;68.89;100853.53;1773423;79;21184;-68
2021/03/07 05:23:24;;;;;;;11.28;7.12;;;;;;;-2.84;68.82;100852.87;1764735;79;21139;-69
2021/03/07 05:25:52;;;;;;;9.63;6.30;;;;;;;-2.81;68.75;100851.73;1777952;79;21649;-71
2021/03/07 05:28:21;;;;;;;10.65;6.75;;;;;;;-2.78;68.68;100851.41;1776597;79;21234;-70
2021/03/07 05:30:49;;;;;;;10.68;6.25;;;;;;;-2.76;68.59;100852.08;1774845;79;21563;-71
2021/03/07 05:33:18;;;;;;;13.15;7.03;;;;;;;-2.73;68.62;100835.22;1778624;79;21522;-70
2021/03/07 05:35:47;;;;;;;12.58;7.00;;;;;;;-2.71;68.55;100840.63;1759428;79;21127;-71
2021/03/07 05:38:16;;;;;;;13.10;7.60;;;;;;;-2.69;68.52;100836.06;1779723;79;21493;-68
2021/03/07 05:40:44;;;;;;;12.05;7.22;;;;;;;-2.67;68.47;100826.23;1763552;79;21163;-69
2021/03/07 05:43:12;;;;;;;14.40;6.92;;;;;;;-2.64;68.39;100832.45;1768104;79;21103;-68
2021/03/07 05:45:39;;;;;;;13.30;7.17;;;;;;;-2.62;68.34;100835.73;1787079;79;21153;-69
2021/03/07 05:48:08;;;;;;;14.13;7.12;;;;;;;-2.57;68.32;100827.88;1768766;79;21242;-69
2021/03/07 05:50:36;;;;;;;11.75;7.20;;;;;;;-2.55;68.29;100835.08;1768386;79;21167;-69
2021/03/07 05:53:04;;;;;;;11.60;7.55;;;;;;;-2.53;68.24;100827.40;1753639;80;21177;-70
2021/03/07 05:55:33;;;;;;;10.93;7.05;;;;;;;-2.49;68.26;100818.73;1788120;79;21096;-68
2021/03/07 05:58:02;;;;;;;12.80;7.72;;;;;;;-2.40;68.24;100826.90;1770083;80;21539;-70
2021/03/07 06:00:31;;;;;;;12.75;8.88;;;;;;;-2.36;68.07;100812.50;1781332;79;21128;-69
2021/03/07 06:02:59;;;;;;;13.13;7.92;;;;;;;-2.28;68.01;100809.86;1749115;80;21166;-69
2021/03/07 06:05:27;;;;;;;14.70;8.53;;;;;;;-2.24;67.80;100807.22;1773846;79;21160;-69
2021/03/07 06:07:55;;;;;;;13.70;8.20;;;;;;;-2.20;67.74;100798.08;1778806;79;21194;-69
2021/03/07 06:10:25;;;;;;;12.55;7.85;;;;;;;-2.15;67.64;100800.99;1779869;79;21380;-69
2021/03/07 06:13:02;;;;;;;12.20;8.60;;;;;;;-2.08;67.47;100792.48;1769366;79;21183;-71
2021/03/07 06:15:32;;;;;;;15.05;8.58;;;;;;;-2.03;67.30;100796.72;1773989;79;21148;-70
2021/03/07 06:17:59;;;;;;;14.95;9.03;;;;;;;-1.96;67.24;100791.95;1758326;79;21060;-70
2021/03/07 06:20:29;;;;;;;14.85;9.25;;;;;;;-1.87;67.06;100794.55;1702646;80;21139;-68
2021/03/07 06:23:02;;;;;;;12.63;8.90;;;;;;;-1.84;67.11;100779.31;1771922;79;21590;-71
2021/03/07 06:25:31;;;;;;;15.20;8.70;;;;;;;-1.74;66.71;100769.95;1757504;79;21079;-68
2021/03/07 06:27:59;;;;;;;14.05;9.10;;;;;;;-1.64;66.19;100780.21;1770856;80;21075;-69
2021/03/07 06:30:30;;;;;;;13.93;8.20;;;;;;;-1.62;66.13;100771.67;1773305;79;21191;-71
2021/03/07 06:33:00;;;;;;;15.98;9.80;;;;;;;-1.59;66.04;100769.52;1771607;79;21167;-69
2021/03/07 06:35:33;;;;;;;13.00;8.90;;;;;;;-1.53;65.84;100760.17;1770497;79;21361;-70
2021/03/07 06:38:08;;;;;;;11.90;8.30;;;;;;;-1.47;65.60;100756.86;1772706;79;21222;-70
2021/03/07 06:40:44;;;;;;;13.13;8.08;;;;;;;-1.40;65.34;100759.60;1767477;79;21142;-69
2021/03/07 06:43:26;;;;;;;13.75;8.68;;;;;;;-1.37;65.20;100769.73;1772193;79;21058;-70
2021/03/07 06:45:56;;;;;;;13.55;8.40;;;;;;;-1.34;65.21;100753.67;1774726;79;21231;-69
2021/03/07 06:48:35;;;;;;;13.85;8.78;;;;;;;-1.29;64.85;100752.14;1776734;79;21972;-70
2021/03/07 06:51:04;;;;;;;14.53;8.60;;;;;;;-1.26;64.67;100748.36;1770152;79;21170;-69
2021/03/07 06:53:36;;;;;;;12.53;8.58;;;;;;;-1.23;64.49;100760.62;1766522;79;21092;-68
2021/03/07 06:56:05;;;;;;;14.30;9.18;;;;;;;-1.16;64.55;100737.14;1769952;79;21522;-69
2021/03/07 06:58:33;;;;;;;10.05;6.92;;;;;;;-1.08;64.09;100723.18;1772462;79;21060;-68
2021/03/07 07:01:01;;;;;;;13.15;8.35;;;;;;;-1.00;63.76;100737.02;1784127;79;21591;-69
2021/03/07 07:03:31;;;;;;;14.05;9.13;;;;;;;-0.93;63.63;100709.59;1771574;79;21198;-69
2021/03/07 07:05:59;;;;;;;13.90;8.58;;;;;;;-0.84;63.50;100700.66;1753841;80;21213;-68
2021/03/07 07:08:45;;;;;;;12.45;7.97;;;;;;;-0.72;63.45;100716.80;1770689;79;21176;-68
2021/03/07 07:11:13;;;;;;;14.45;9.30;;;;;;;-0.57;62.78;100749.59;1755144;79;21121;-69
2021/03/07 07:13:47;;;;;;;13.90;7.95;;;;;;;-0.51;62.55;100709.02;1769691;79;22126;-69
2021/03/07 07:16:16;;;;;;;13.03;7.75;;;;;;;-0.43;61.99;100698.92;1757161;80;21158;-71
2021/03/07 07:18:46;;;;;;;13.50;8.95;;;;;;;-0.35;61.74;100702.78;1748949;81;21189;-69
2021/03/07 07:21:18;;;;;;;14.75;9.10;;;;;;;-0.27;61.81;100705.30;1729691;82;21120;-70
2021/03/07 07:23:48;;;;;;;13.03;9.10;;;;;;;-0.14;61.46;100699.40;1728048;81;21179;-69
2021/03/07 07:26:16;;;;;;;13.93;9.05;;;;;;;-0.03;60.81;100676.63;1737715;82;21221;-70
2021/03/07 07:28:44;;;;;;;14.70;7.90;;;;;;;0.08;60.22;100676.64;1737932;81;21191;-70
2021/03/07 07:31:41;;;;;;;13.98;9.08;;;;;;;0.16;59.97;100672.58;1738499;82;21148;-69
2021/03/07 07:34:22;;;;;;;13.75;9.13;;;;;;;0.22;59.96;100669.21;1726564;81;21171;-70
2021/03/07 07:36:57;;;;;;;16.45;9.93;;;;;;;0.29;59.13;100652.70;1716029;81;21091;-68
2021/03/07 07:39:37;;;;;;;16.17;9.90;;;;;;;0.33;59.03;100650.02;1714387;81;21477;-71
2021/03/07 07:42:29;;;;;;;14.05;9.38;;;;;;;0.40;59.17;100656.17;1731110;82;21111;-72
2021/03/07 07:45:11;;;;;;;13.78;8.90;;;;;;;0.45;59.00;100659.84;1728777;81;21178;-70
2021/03/07 07:47:45;;;;;;;14.85;9.00;;;;;;;0.49;58.74;100615.59;1699844;82;21171;-70
2021/03/07 07:50:31;;;;;;;14.43;9.28;;;;;;;0.53;58.84;100636.58;1769741;79;21131;-70
2021/03/07 07:53:17;;;;;;;12.40;8.50;;;;;;;0.64;58.52;100636.56;1768270;79;21384;-71
2021/03/07 07:55:50;;;;;;;14.90;8.63;;;;;;;0.69;58.11;100639.42;1779394;79;21196;-70
2021/03/07 07:58:42;;;;;;;14.50;9.40;;;;;;;0.74;58.06;100629.66;1764276;79;21307;-71
2021/03/07 08:01:13;;;;;;;14.03;9.13;;;;;;;0.79;57.80;100643.03;1770904;79;21254;-70
2021/03/07 08:03:46;;;;;;;13.62;8.70;;;;;;;0.85;57.64;100632.56;1760756;79;21179;-69
2021/03/07 08:06:24;;;;;;;11.50;7.75;;;;;;;0.91;57.57;100619.17;1770552;79;21466;-70
2021/03/07 08:08:53;;;;;;;13.48;8.38;;;;;;;1.03;57.18;100604.99;1775934;80;21778;-70
2021/03/07 08:11:27;;;;;;;14.35;9.18;;;;;;;1.10;57.18;100601.39;1776534;79;21198;-70
2021/03/07 08:13:57;;;;;;;11.48;7.70;;;;;;;1.24;57.08;100602.27;1776280;79;21675;-72
2021/03/07 08:16:41;;;;;;;12.68;8.85;;;;;;;1.39;56.74;100594.27;1772861;80;21171;-71
2021/03/07 08:19:19;;;;;;;14.73;9.13;;;;;;;1.50;56.41;100578.41;1774353;79;22286;-69
2021/03/07 08:22:05;;;;;;;18.40;9.53;;;;;;;1.48;55.97;100594.41;1754674;79;21163;-71
2021/03/07 08:24:52;;;;;;;14.30;8.63;;;;;;;1.43;56.29;100582.33;1762563;79;22189;-72
2021/03/07 08:27:41;;;;;;;14.93;9.43;;;;;;;1.45;56.28;100564.53;1790035;78;22766;-69
2021/03/07 08:30:15;;;;;;;13.48;8.63;;;;;;;1.38;56.47;100568.45;1764287;79;21212;-71
2021/03/07 08:32:46;;;;;;;14.55;9.03;;;;;;;1.40;56.57;100573.51;1757535;79;21376;-68
2021/03/07 08:35:20;;;;;;;14.75;9.78;;;;;;;1.39;56.69;100567.94;1770759;79;21180;-71
2021/03/07 08:38:15;;;;;;;14.35;9.38;;;;;;;1.34;56.54;100550.09;1780655;79;21165;-71
2021/03/07 08:40:56;;;;;;;13.70;8.98;;;;;;;1.30;56.84;100559.90;1812804;78;21144;-69
2021/03/07 08:43:30;;;;;;;13.48;9.15;;;;;;;1.25;57.19;100553.92;1812449;79;21124;-70
2021/03/07 08:46:10;;;;;;;13.95;8.60;;;;;;;1.25;57.32;100555.72;1795964;78;21449;-71
2021/03/07 08:48:45;;;;;;;13.78;8.60;;;;;;;1.24;57.28;100547.02;1768437;80;22040;-71
2021/03/07 08:51:18;;;;;;;11.20;8.45;;;;;;;1.23;57.27;100555.92;1783967;80;21180;-71
2021/03/07 08:53:46;;;;;;;12.60;8.23;;;;;;;1.24;57.42;100538.31;1811895;79;21231;-70
2021/03/07 08:56:14;;;;;;;13.98;8.78;;;;;;;1.23;57.14;100528.81;1803469;79;21175;-70
2021/03/07 08:58:46;;;;;;;12.53;8.08;;;;;;;1.26;57.46;100561.31;1767833;79;22803;-72
2021/03/07 09:01:14;;;;;;;13.68;8.63;;;;;;;1.31;57.39;100553.62;1803691;79;21193;-71
2021/03/07 09:03:42;;;;;;;12.85;9.03;;;;;;;1.37;57.37;100554.16;1805364;79;21591;-70
2021/03/07 09:06:11;;;;;;;13.80;8.90;;;;;;;1.42;57.13;100549.64;1715600;81;21192;-71
2021/03/07 09:08:40;;;;;;;12.63;8.63;;;;;;;1.45;57.30;100540.84;1765923;80;21651;-72
2021/03/07 09:11:09;;;;;;;13.05;8.50;;;;;;;1.52;57.39;100541.67;1770693;81;21752;-69
2021/03/07 09:13:49;;;;;;;10.72;6.55;;;;;;;1.56;56.78;100549.47;1809530;79;21556;-70
2021/03/07 09:16:16;;;;;;;11.05;6.47;;;;;;;1.59;55.74;100541.69;1800589;79;21639;-71
2021/03/07 09:18:44;;;;;;;12.20;7.08;;;;;;;1.58;55.63;100514.56;1778810;80;21559;-70
2021/03/07 09:21:15;;;;;;;9.38;6.40;;;;;;;1.63;55.59;100542.40;1781722;79;21631;-69
2021/03/07 09:23:46;;;;;;;10.40;6.00;;;;;;;1.69;55.41;100549.21;1784369;79;21590;-69
2021/03/07 09:26:22;;;;;;;10.00;6.58;;;;;;;1.74;55.12;100524.40;1771782;79;21582;-70
2021/03/07 09:28:54;;;;;;;10.10;6.58;;;;;;;1.76;54.98;100519.75;1774952;80;21214;-69
2021/03/07 09:31:36;;;;;;;8.75;6.03;;;;;;;1.74;55.12;100525.71;1769486;80;21226;-70
2021/03/07 09:34:05;;;;;;;8.73;5.75;;;;;;;1.73;55.25;100530.69;1776557;80;21140;-71
2021/03/07 09:36:48;;;;;;;9.30;5.80;;;;;;;1.69;55.12;100536.05;1796593;79;21349;-72
2021/03/07 09:39:22;;;;;;;9.73;6.22;;;;;;;1.67;55.62;100515.68;1775967;79;21195;-72
2021/03/07 09:41:52;;;;;;;9.38;5.80;;;;;;;1.67;55.62;100515.68;1773810;79;21616;-70
2021/03/07 09:44:24;;;;;;;9.10;6.00;;;;;;;1.65;55.41;100510.63;1771197;80;21236;-70
2021/03/07 09:46:52;;;;;;;9.13;6.03;;;;;;;1.66;55.59;100499.59;1775277;80;21195;-69
2021/03/07 09:49:23;;;;;;;10.45;5.92;;;;;;;1.61;55.59;100508.06;1768887;80;21378;-71
2021/03/07 09:51:52;;;;;;;11.28;6.50;;;;;;;1.57;55.82;100497.63;1787531;79;21168;-70
2021/03/07 09:54:20;;;;;;;9.78;6.50;;;;;;;1.56;56.15;100506.04;1786303;79;21184;-70
2021/03/07 09:56:52;;;;;;;9.55;5.85;;;;;;;1.63;56.10;100513.44;1773421;79;21117;-69
2021/03/07 09:59:25;;;;;;;;;;;;;;;1.68;55.94;100465.95;1761518;79;21211;-70
2021/03/07 10:02:05;;;;;;;12.70;6.75;;;;;;;1.71;55.82;100504.56;1789177;79;21150;-69
2021/03/07 10:04:40;;;;;;;11.63;7.15;;;;;;;1.70;55.84;100498.16;1786982;79;21155;-71
2021/03/07 10:10:11;;;;;;;10.43;6.20;;;;;;;1.74;55.88;100483.07;1751042;79;22748;-69
2021/03/07 10:12:52;;;;;;;9.60;6.42;;;;;;;1.66;56.19;100492.49;1708970;83;21165;-70
2021/03/07 10:15:40;;;;;;;8.48;5.95;;;;;;;1.64;56.25;100490.05;1698673;82;21381;-70
2021/03/07 10:18:17;;;;;;;8.88;5.83;;;;;;;1.65;56.23;100486.93;1712141;82;21199;-70
2021/03/07 10:20:50;;;;;;;8.13;5.90;;;;;;;1.63;56.33;100481.84;1712580;82;21206;-69
2021/03/07 10:23:19;;;;;;;8.23;6.20;;;;;;;1.63;56.37;100488.43;1715639;83;21220;-68
2021/03/07 10:25:48;;;;;;;9.35;6.10;;;;;;;1.61;56.45;100485.20;1716238;82;21168;-69
2021/03/07 10:28:26;;;;;;;10.18;5.40;;;;;;;1.62;56.82;100478.92;1697773;83;21470;-69
2021/03/07 10:31:11;;;;;;;8.80;5.92;;;;;;;1.63;56.74;100475.27;1713910;83;21240;-70
2021/03/07 10:33:40;;;;;;;8.88;6.75;;;;;;;1.64;56.57;100466.86;1680684;85;21231;-70
2021/03/07 10:36:12;;;;;;;9.95;6.17;;;;;;;1.66;56.72;100470.63;1682944;83;21252;-70
2021/03/07 10:38:44;;;;;;;9.05;6.25;;;;;;;1.69;56.78;100467.59;1672624;84;21656;-69
2021/03/07 10:41:31;;;;;;;8.50;5.50;;;;;;;1.71;56.66;100476.92;1661045;84;22164;-70
2021/03/07 10:44:02;;;;;;;9.08;6.42;;;;;;;1.72;56.56;100457.47;1657442;85;21193;-69
2021/03/07 10:46:41;;;;;;;9.13;5.83;;;;;;;1.73;56.83;100467.48;1659840;84;21670;-69
2021/03/07 10:49:11;;;;;;;9.03;5.87;;;;;;;1.74;56.61;100453.30;1664479;85;21145;-70
2021/03/07 10:51:39;;;;;;;8.75;5.87;;;;;;;1.75;56.72;100463.66;1660030;83;21194;-70
2021/03/07 10:54:07;;;;;;;9.25;6.08;;;;;;;1.76;56.59;100463.95;1657220;85;21381;-71
2021/03/07 10:56:43;;;;;;;8.90;6.05;;;;;;;1.78;56.45;100450.59;1709336;83;21197;-69
2021/03/07 10:59:10;;;;;;;8.75;5.90;;;;;;;1.80;56.63;100446.72;1708632;83;21244;-71
2021/03/07 11:01:39;;;;;;;7.90;5.50;;;;;;;1.82;56.58;100436.81;1712533;83;21129;-70
2021/03/07 11:04:08;;;;;;;9.35;5.83;;;;;;;1.88;56.56;100427.30;1713297;83;21193;-70
2021/03/07 11:06:36;;;;;;;10.20;5.90;;;;;;;1.93;56.18;100418.27;1715171;82;21548;-70
2021/03/07 11:09:06;;;;;;;8.88;5.65;;;;;;;1.93;56.02;100428.80;1701337;83;21200;-70
2021/03/07 11:11:34;;;;;;;7.95;5.60;;;;;;;1.94;56.42;100419.07;1686989;84;21212;-69
2021/03/07 11:14:03;;;;;;;8.60;5.85;;;;;;;1.94;56.17;100422.54;1692534;84;21618;-70
2021/03/07 11:16:31;;;;;;;8.63;5.45;;;;;;;1.94;56.02;100409.38;1702697;84;21272;-70
2021/03/07 11:19:00;;;;;;;11.22;6.00;;;;;;;1.93;55.96;100407.73;1695902;83;21210;-70
2021/03/07 11:21:28;;;;;;;8.53;5.17;;;;;;;1.92;56.12;100400.05;1696650;84;21660;-69
2021/03/07 11:23:56;;;;;;;9.83;5.17;;;;;;;1.90;56.07;100396.80;1697349;83;21145;-70
2021/03/07 11:26:24;;;;;;;9.43;5.50;;;;;;;1.88;55.99;100415.45;1690560;84;21229;-72
2021/03/07 11:28:52;;;;;;;8.43;5.40;;;;;;;1.86;55.93;100370.05;1693677;82;21645;-69
2021/03/07 11:31:19;;;;;;;9.88;5.95;;;;;;;1.85;56.16;100416.66;1691180;84;21466;-70
2021/03/07 11:33:51;;;;;;;9.80;5.37;;;;;;;1.85;56.36;100390.31;1692761;83;21178;-69
2021/03/07 11:36:19;;;;;;;10.13;6.60;;;;;;;1.82;56.29;100376.23;1694767;84;21181;-71
2021/03/07 11:38:49;;;;;;;7.22;4.92;;;;;;;1.83;56.42;100376.53;1695634;84;21157;-69
2021/03/07 11:41:17;;;;;;;7.72;5.17;;;;;;;1.87;56.31;100389.59;1690572;84;21200;-74
2021/03/07 11:43:48;;;;;;;8.25;5.78;;;;;;;1.86;56.37;100384.03;1702947;82;21406;-69
2021/03/07 11:46:15;;;;;;;9.93;5.35;;;;;;;1.87;56.44;100373.79;1703941;84;21169;-70
2021/03/07 11:48:43;;;;;;;8.40;5.37;;;;;;;1.87;56.44;100376.94;1700093;82;21264;-70